Time;durP1;ratioP1;P1;durP2;ratioP2;P2;SDS_P1;SDS_P2;PMS_P1;PMS_P2;Temp;Humidity;BMP_temperature;BMP_pressure;BME280_temperature;BME280_humidity;BME280_pressure;Samples;Min_cycle;Max_cycle;Signal;HPM_P1;HPM_P2
2021/12/27 00:01:18;;;;;;;35.67;21.42;;;-7.00;1.00;;;;;;5145963;27;20752;-78
2021/12/27 00:03:49;;;;;;;31.70;24.27;;;-7.00;1.00;;;;;;5144345;27;20222;-79
2021/12/27 00:06:17;;;;;;;31.20;22.75;;;-6.90;1.00;;;;;;5146501;27;20245;-78
2021/12/27 00:08:44;;;;;;;37.67;23.63;;;-6.90;1.00;;;;;;5140548;27;20928;-79
2021/12/27 00:11:13;;;;;;;40.22;23.17;;;-6.90;1.00;;;;;;5155511;27;20332;-78
2021/12/27 00:13:40;;;;;;;30.30;22.58;;;-7.00;1.00;;;;;;5143825;27;20225;-79
2021/12/27 00:16:07;;;;;;;35.35;22.77;;;-7.00;1.00;;;;;;5144997;27;20234;-78
2021/12/27 00:18:34;;;;;;;39.10;24.70;;;-6.90;1.00;;;;;;5143836;27;20331;-76
2021/12/27 00:21:03;;;;;;;38.63;25.08;;;-6.90;1.00;;;;;;5142517;27;20210;-78
2021/12/27 00:23:29;;;;;;;40.40;25.42;;;-6.90;1.00;;;;;;5137840;27;20253;-77
2021/12/27 00:25:56;;;;;;;43.03;26.25;;;-6.90;1.00;;;;;;5142283;27;20214;-79
2021/12/27 00:28:23;;;;;;;40.60;23.65;;;-6.90;1.00;;;;;;5140424;27;20284;-78
2021/12/27 00:30:50;;;;;;;33.90;22.85;;;-6.90;1.00;;;;;;5142229;27;20222;-78
2021/12/27 00:33:17;;;;;;;40.70;25.88;;;-6.90;1.00;;;;;;5152343;27;20963;-79
2021/12/27 00:35:46;;;;;;;39.85;24.75;;;-6.90;1.00;;;;;;5162291;27;20237;-78
2021/12/27 00:38:14;;;;;;;36.28;24.17;;;-6.80;1.00;;;;;;5163889;27;20215;-77
2021/12/27 00:40:41;;;;;;;37.53;24.48;;;-6.80;1.00;;;;;;5157498;27;20214;-78
2021/12/27 00:43:07;;;;;;;37.10;24.30;;;-6.80;1.00;;;;;;5162008;27;20254;-76
2021/12/27 00:45:34;;;;;;;41.10;27.15;;;-6.80;1.00;;;;;;5164434;27;20197;-78
2021/12/27 00:48:03;;;;;;;35.00;25.77;;;-6.80;1.00;;;;;;5167574;27;20249;-77
2021/12/27 00:50:31;;;;;;;34.60;22.98;;;-6.80;1.00;;;;;;5168190;27;20193;-78
2021/12/27 00:52:57;;;;;;;41.42;25.38;;;-6.80;1.00;;;;;;5161833;27;20213;-76
2021/12/27 00:55:26;;;;;;;41.95;26.63;;;-6.80;1.00;;;;;;5152391;27;20271;-78
2021/12/27 00:57:53;;;;;;;44.08;28.10;;;-6.80;1.00;;;;;;5148540;27;20490;-79
2021/12/27 01:00:22;;;;;;;46.83;27.65;;;-6.70;1.00;;;;;;5145668;27;20380;-78
2021/12/27 01:02:50;;;;;;;44.20;26.00;;;-6.80;1.00;;;;;;5142039;27;20265;-78
2021/12/27 01:05:17;;;;;;;43.25;25.40;;;-6.70;1.00;;;;;;5140890;27;20230;-77
2021/12/27 01:07:44;;;;;;;44.42;26.17;;;-6.80;1.00;;;;;;5147715;27;20210;-78
2021/12/27 01:10:33;;;;;;;39.95;27.25;;;-6.80;1.00;;;;;;5147047;27;20241;-79
2021/12/27 01:13:17;;;;;;;43.47;27.25;;;-6.80;1.00;;;;;;5152121;27;20233;-77
2021/12/27 01:15:49;;;;;;;37.88;24.90;;;-6.80;1.00;;;;;;5146198;27;20247;-77
2021/12/27 01:18:17;;;;;;;44.03;26.42;;;-6.70;1.00;;;;;;5148386;27;20295;-78
2021/12/27 01:20:44;;;;;;;43.15;25.90;;;-6.80;1.00;;;;;;5141792;27;20226;-78
2021/12/27 01:23:13;;;;;;;39.45;25.35;;;-6.70;1.00;;;;;;5145918;27;20268;-78
2021/12/27 01:25:40;;;;;;;39.97;25.98;;;-6.70;1.00;;;;;;5134663;27;20229;-78
2021/12/27 01:28:09;;;;;;;48.95;27.77;;;-6.70;1.00;;;;;;5142104;27;20229;-77
2021/12/27 01:30:45;;;;;;;42.28;27.73;;;-6.70;1.00;;;;;;5140784;27;20210;-76
2021/12/27 01:33:14;;;;;;;39.53;26.23;;;-6.60;1.00;;;;;;5141486;27;20229;-78
2021/12/27 01:35:40;;;;;;;42.03;27.08;;;-6.70;1.00;;;;;;5157828;27;20227;-77
2021/12/27 01:38:07;;;;;;;45.42;28.08;;;-6.70;1.00;;;;;;5138056;27;20223;-79
2021/12/27 01:40:34;;;;;;;50.00;28.98;;;-6.60;1.00;;;;;;5145600;27;20303;-77
2021/12/27 01:43:08;;;;;;;48.50;28.83;;;-6.70;1.00;;;;;;5144451;27;20227;-77
2021/12/27 01:45:38;;;;;;;38.63;26.48;;;-6.60;1.00;;;;;;5161933;27;20264;-78
2021/12/27 01:48:07;;;;;;;45.60;29.42;;;-6.70;1.00;;;;;;5140984;27;20356;-77
2021/12/27 01:50:35;;;;;;;50.10;29.13;;;-6.60;1.00;;;;;;5141178;27;20969;-78
2021/12/27 01:53:03;;;;;;;45.42;28.73;;;-6.60;1.00;;;;;;5141982;27;20681;-78
2021/12/27 01:55:30;;;;;;;42.88;29.38;;;-6.60;1.00;;;;;;5142171;27;20277;-78
2021/12/27 01:57:57;;;;;;;49.70;30.45;;;-6.60;1.00;;;;;;5145826;27;20303;-78
2021/12/27 02:00:27;;;;;;;45.58;29.02;;;-6.60;1.00;;;;;;5143498;27;20254;-76
2021/12/27 02:02:54;;;;;;;41.80;26.42;;;-6.60;1.00;;;;;;5144090;27;20301;-77
2021/12/27 02:05:23;;;;;;;40.67;29.70;;;-6.50;1.00;;;;;;5162995;27;20210;-79
2021/12/27 02:07:50;;;;;;;42.25;28.55;;;-6.50;1.00;;;;;;5148287;27;20605;-78
2021/12/27 02:10:17;;;;;;;45.92;28.25;;;-6.50;1.00;;;;;;5137064;27;20919;-78
2021/12/27 02:12:45;;;;;;;46.97;28.58;;;-6.50;1.00;;;;;;5139412;27;20226;-78
2021/12/27 02:15:12;;;;;;;49.90;29.50;;;-6.50;1.00;;;;;;5142282;27;20394;-78
2021/12/27 02:17:43;;;;;;;39.65;27.30;;;-6.50;1.00;;;;;;5142833;27;20260;-79
2021/12/27 02:20:17;;;;;;;42.33;30.27;;;-6.50;1.00;;;;;;5143123;27;20214;-78
2021/12/27 02:22:45;;;;;;;47.05;29.23;;;-6.50;1.00;;;;;;5145501;27;20322;-78
2021/12/27 02:25:13;;;;;;;43.65;28.80;;;-6.50;1.00;;;;;;5148496;27;20910;-78
2021/12/27 02:27:40;;;;;;;48.03;30.67;;;-6.50;1.00;;;;;;5144830;27;20214;-77
2021/12/27 02:30:11;;;;;;;48.10;29.58;;;-6.40;1.00;;;;;;5151196;27;20215;-77
2021/12/27 02:32:46;;;;;;;45.30;29.92;;;-6.40;1.00;;;;;;5172875;27;20217;-76
2021/12/27 02:35:18;;;;;;;46.22;29.25;;;-6.40;1.00;;;;;;5168927;27;20688;-77
2021/12/27 02:37:45;;;;;;;51.08;32.15;;;-6.40;1.00;;;;;;5170755;27;20229;-77
2021/12/27 02:40:12;;;;;;;41.97;30.08;;;-6.40;1.00;;;;;;5170897;27;20286;-76
2021/12/27 02:42:57;;;;;;;42.38;29.83;;;-6.40;1.00;;;;;;5168022;27;20243;-77
2021/12/27 02:45:24;;;;;;;46.25;30.75;;;-6.30;1.00;;;;;;5153923;27;20229;-79
2021/12/27 02:47:52;;;;;;;49.35;30.10;;;-6.20;1.00;;;;;;5144513;27;20277;-78
2021/12/27 02:50:22;;;;;;;49.53;29.80;;;-6.20;1.00;;;;;;5151287;27;21025;-77
2021/12/27 02:52:49;;;;;;;46.33;30.35;;;-6.20;1.00;;;;;;5147965;27;20282;-77
2021/12/27 02:55:17;;;;;;;46.47;30.55;;;-6.10;1.00;;;;;;5145077;27;20283;-79
2021/12/27 02:57:46;;;;;;;46.15;29.35;;;-6.10;1.00;;;;;;5147838;27;20226;-79
2021/12/27 03:00:15;;;;;;;45.88;29.75;;;-6.10;1.00;;;;;;5146547;27;20283;-77
2021/12/27 03:02:44;;;;;;;51.22;29.58;;;-6.00;1.00;;;;;;5143589;27;21568;-78
2021/12/27 03:05:12;;;;;;;51.33;31.65;;;-6.00;1.00;;;;;;5152448;27;21001;-77
2021/12/27 03:07:41;;;;;;;42.58;29.02;;;-6.00;1.00;;;;;;5168137;27;20222;-79
2021/12/27 03:10:09;;;;;;;52.17;29.45;;;-6.00;1.00;;;;;;5142257;27;20218;-78
2021/12/27 03:12:38;;;;;;;47.35;30.38;;;-5.90;1.00;;;;;;5145577;27;20248;-77
2021/12/27 03:15:07;;;;;;;48.85;30.05;;;-5.80;1.00;;;;;;5148295;27;20230;-77
2021/12/27 03:17:34;;;;;;;49.38;30.23;;;-5.90;1.00;;;;;;5150435;27;20264;-77
2021/12/27 03:20:01;;;;;;;43.55;29.75;;;-5.90;1.00;;;;;;5149095;27;20234;-78
2021/12/27 03:22:28;;;;;;;51.25;29.92;;;-5.90;1.00;;;;;;5143738;27;20256;-78
2021/12/27 03:24:56;;;;;;;47.63;28.15;;;-5.90;1.00;;;;;;5145434;27;20218;-78
2021/12/27 03:27:23;;;;;;;45.42;30.33;;;-5.90;1.00;;;;;;5155193;27;20218;-78
2021/12/27 03:29:50;;;;;;;48.92;30.23;;;-5.90;1.00;;;;;;5145818;27;20226;-78
2021/12/27 03:32:18;;;;;;;41.30;28.10;;;-5.90;1.00;;;;;;5146929;27;20283;-78
2021/12/27 03:34:53;;;;;;;45.13;28.65;;;-5.90;1.00;;;;;;5151256;27;20237;-78
2021/12/27 03:37:21;;;;;;;48.60;30.35;;;-5.80;1.00;;;;;;5146761;27;20229;-79
2021/12/27 03:39:48;;;;;;;49.22;29.50;;;-5.80;1.00;;;;;;5143731;27;20647;-78
2021/12/27 03:42:17;;;;;;;41.67;28.75;;;-5.80;1.00;;;;;;5144206;27;20272;-76
2021/12/27 03:44:45;;;;;;;42.55;28.30;;;-5.80;1.00;;;;;;5144498;27;20230;-78
2021/12/27 03:47:12;;;;;;;41.90;29.05;;;-5.80;1.00;;;;;;5143230;27;20350;-77
2021/12/27 03:49:41;;;;;;;52.63;29.65;;;-5.80;1.00;;;;;;5142558;27;20222;-77
2021/12/27 03:52:11;;;;;;;44.72;29.75;;;-5.80;1.00;;;;;;5148425;27;20768;-78
2021/12/27 03:54:38;;;;;;;50.03;28.70;;;-5.70;1.00;;;;;;5147434;27;20218;-78
2021/12/27 03:57:05;;;;;;;42.03;27.52;;;-5.70;1.00;;;;;;5163323;27;20234;-77
2021/12/27 03:59:49;;;;;;;47.78;30.08;;;-5.70;1.00;;;;;;5154245;27;20224;-77
2021/12/27 04:02:17;;;;;;;45.40;28.10;;;-5.70;1.00;;;;;;5147176;27;20214;-78
2021/12/27 04:04:44;;;;;;;50.97;31.42;;;-5.70;1.00;;;;;;5142281;27;20299;-78
2021/12/27 04:07:12;;;;;;;48.67;29.48;;;-5.60;1.00;;;;;;5139565;27;20287;-77
2021/12/27 04:09:40;;;;;;;47.00;30.05;;;-5.60;1.00;;;;;;5139236;27;20210;-78
2021/12/27 04:12:08;;;;;;;50.35;30.13;;;-5.60;1.00;;;;;;5142203;27;20211;-78
2021/12/27 04:14:36;;;;;;;43.85;29.50;;;-5.50;1.00;;;;;;5141071;27;20206;-79
2021/12/27 04:17:04;;;;;;;44.33;29.15;;;-5.60;1.00;;;;;;5143694;27;20230;-79
2021/12/27 04:19:31;;;;;;;42.88;30.40;;;-5.50;1.00;;;;;;5147933;27;20218;-78
2021/12/27 04:21:57;;;;;;;46.30;30.38;;;-5.60;1.00;;;;;;5146302;27;20797;-78
2021/12/27 04:24:24;;;;;;;44.83;27.90;;;-5.50;1.00;;;;;;5137436;27;20222;-78
2021/12/27 04:26:51;;;;;;;41.72;29.42;;;-5.40;1.00;;;;;;5142375;27;20858;-78
2021/12/27 04:29:18;;;;;;;44.58;29.50;;;-5.30;1.00;;;;;;5139868;27;20221;-79
2021/12/27 04:31:46;;;;;;;47.53;28.10;;;-5.30;1.00;;;;;;5139181;27;20268;-78
2021/12/27 04:34:13;;;;;;;42.45;27.70;;;-5.30;1.00;;;;;;5146431;27;20215;-77
2021/12/27 04:36:40;;;;;;;47.20;29.80;;;-5.30;1.00;;;;;;5148517;27;20363;-79
2021/12/27 04:39:08;;;;;;;47.28;28.35;;;-5.40;1.00;;;;;;5143834;27;20405;-78
2021/12/27 04:41:36;;;;;;;40.65;28.05;;;-5.40;1.00;;;;;;5145670;27;20215;-78
2021/12/27 04:44:04;;;;;;;43.13;29.08;;;-5.30;1.00;;;;;;5141427;27;20310;-77
2021/12/27 04:46:31;;;;;;;46.88;29.38;;;-5.30;1.00;;;;;;5140731;27;20657;-77
2021/12/27 04:48:59;;;;;;;43.22;28.95;;;-5.40;1.00;;;;;;5140818;27;20213;-78
2021/12/27 04:51:26;;;;;;;49.45;29.35;;;-5.30;1.00;;;;;;5157176;27;20283;-77
2021/12/27 04:53:54;;;;;;;45.13;30.00;;;-5.30;1.00;;;;;;5161572;27;20229;-78
2021/12/27 04:56:21;;;;;;;49.35;29.63;;;-5.20;1.00;;;;;;5153153;27;20254;-78
2021/12/27 04:58:48;;;;;;;36.25;27.60;;;-5.30;1.00;;;;;;5138761;27;20222;-78
2021/12/27 05:01:16;;;;;;;50.10;31.35;;;-5.30;1.00;;;;;;5139653;27;20219;-79
2021/12/27 05:03:43;;;;;;;43.65;29.25;;;-5.30;1.00;;;;;;5138416;27;20276;-78
2021/12/27 05:06:13;;;;;;;44.75;28.48;;;-5.20;1.00;;;;;;5140121;27;20214;-79
2021/12/27 05:08:40;;;;;;;44.83;30.52;;;-5.20;1.00;;;;;;5139095;27;20228;-79
2021/12/27 05:11:07;;;;;;;40.42;27.75;;;-5.20;1.00;;;;;;5139095;27;20298;-78
2021/12/27 05:13:34;;;;;;;40.78;27.90;;;-5.10;1.00;;;;;;5141308;27;20223;-78
2021/12/27 05:16:03;;;;;;;48.17;28.13;;;-5.00;1.00;;;;;;5139473;27;20253;-78
2021/12/27 05:18:30;;;;;;;44.22;28.38;;;-4.90;1.00;;;;;;5138896;27;20344;-78
2021/12/27 05:20:57;;;;;;;47.63;29.17;;;-4.90;1.00;;;;;;5144310;27;21107;-78
2021/12/27 05:23:26;;;;;;;42.42;28.48;;;-4.90;1.00;;;;;;5140643;27;20233;-78
2021/12/27 05:25:53;;;;;;;44.58;29.65;;;-4.80;1.00;;;;;;5141307;27;20214;-78
2021/12/27 05:28:20;;;;;;;45.65;28.98;;;-4.70;1.00;;;;;;5139563;27;20241;-77
2021/12/27 05:30:48;;;;;;;47.17;29.08;;;-4.70;1.00;;;;;;5143661;27;20219;-79
2021/12/27 05:33:18;;;;;;;45.85;29.00;;;-4.70;1.00;;;;;;5139728;27;20317;-79
2021/12/27 05:35:44;;;;;;;47.33;29.90;;;-4.60;1.00;;;;;;5141575;27;20804;-79
2021/12/27 05:38:11;;;;;;;48.63;28.00;;;-4.60;1.00;;;;;;5144499;27;20226;-78
2021/12/27 05:40:39;;;;;;;55.08;31.00;;;-4.60;1.00;;;;;;5143270;27;20708;-79
2021/12/27 05:43:07;;;;;;;46.13;28.60;;;-4.60;1.00;;;;;;5159748;27;20525;-78
2021/12/27 05:45:35;;;;;;;49.45;29.45;;;-4.60;1.00;;;;;;5156864;27;20229;-79
2021/12/27 05:48:02;;;;;;;54.35;28.90;;;-4.60;1.00;;;;;;5141655;27;20353;-78
2021/12/27 05:50:30;;;;;;;44.15;27.88;;;-4.60;1.00;;;;;;5140443;27;20222;-78
2021/12/27 05:52:57;;;;;;;51.38;29.98;;;-4.60;1.00;;;;;;5145435;27;20234;-77
2021/12/27 05:55:24;;;;;;;47.40;28.92;;;-4.60;1.00;;;;;;5162119;27;20242;-77
2021/12/27 05:57:53;;;;;;;40.35;29.25;;;-4.50;1.00;;;;;;5143753;27;20341;-78
2021/12/27 06:00:21;;;;;;;48.63;29.35;;;-4.50;1.00;;;;;;5144233;27;20223;-78
2021/12/27 06:02:51;;;;;;;48.13;29.38;;;-4.50;1.00;;;;;;5142434;27;20218;-78
2021/12/27 06:05:18;;;;;;;46.03;28.25;;;-4.50;1.00;;;;;;5145916;27;21047;-77
2021/12/27 06:07:45;;;;;;;42.40;28.15;;;-4.50;1.00;;;;;;5147501;27;20210;-78
2021/12/27 06:10:12;;;;;;;43.53;27.52;;;-4.50;1.00;;;;;;5145858;27;20956;-77
2021/12/27 06:12:42;;;;;;;45.40;28.63;;;-4.40;1.00;;;;;;5143669;27;20222;-77
2021/12/27 06:15:12;;;;;;;43.90;27.60;;;-4.40;1.00;;;;;;5146412;27;20218;-78
2021/12/27 06:17:42;;;;;;;44.40;28.67;;;-4.40;1.00;;;;;;5146600;27;20240;-78
2021/12/27 06:20:11;;;;;;;46.95;30.80;;;-4.30;1.00;;;;;;5157794;27;20222;-77
2021/12/27 06:22:41;;;;;;;42.88;29.02;;;-4.30;1.00;;;;;;5160533;27;20226;-76
2021/12/27 06:25:09;;;;;;;45.30;30.27;;;-4.20;1.00;;;;;;5156827;27;20230;-77
2021/12/27 06:27:36;;;;;;;43.95;27.70;;;-4.20;1.00;;;;;;5162273;27;20225;-77
2021/12/27 06:30:08;;;;;;;45.13;29.42;;;-4.20;1.00;;;;;;5156224;27;20310;-77
2021/12/27 06:32:36;;;;;;;47.55;29.35;;;-4.30;1.00;;;;;;5154261;27;20296;-78
2021/12/27 06:35:04;;;;;;;50.28;29.55;;;-4.30;1.00;;;;;;5154417;27;20214;-78
2021/12/27 06:37:34;;;;;;;45.88;30.67;;;-4.20;1.00;;;;;;5154843;27;20226;-78
2021/12/27 06:40:00;;;;;;;43.80;27.73;;;-4.20;1.00;;;;;;5150598;27;20234;-76
2021/12/27 06:42:27;;;;;;;40.75;28.73;;;-4.10;1.00;;;;;;5152158;27;20330;-78
2021/12/27 06:44:54;;;;;;;50.67;30.02;;;-4.10;1.00;;;;;;5157652;27;20211;-78
2021/12/27 06:47:22;;;;;;;44.42;30.00;;;-4.10;1.00;;;;;;5158654;27;20253;-77
2021/12/27 06:49:50;;;;;;;45.55;30.75;;;-4.10;1.00;;;;;;5152530;27;20210;-78
2021/12/27 06:52:17;;;;;;;42.13;28.98;;;-4.00;1.00;;;;;;5152486;27;20266;-77
2021/12/27 06:54:44;;;;;;;48.75;29.25;;;-4.00;1.00;;;;;;5149196;27;20340;-79
2021/12/27 06:57:11;;;;;;;45.58;28.15;;;-3.90;1.00;;;;;;5141472;27;20226;-78
2021/12/27 06:59:38;;;;;;;45.90;30.13;;;-4.00;1.00;;;;;;5143814;27;20224;-77
2021/12/27 07:02:06;;;;;;;43.42;29.42;;;-4.00;1.00;;;;;;5143164;27;21161;-79
2021/12/27 07:04:33;;;;;;;52.60;30.63;;;-3.90;1.00;;;;;;5144614;27;20240;-79
2021/12/27 07:07:02;;;;;;;48.67;29.55;;;-3.90;1.00;;;;;;5141751;27;20218;-78
2021/12/27 07:09:28;;;;;;;43.72;29.13;;;-4.00;1.00;;;;;;5142371;27;20351;-78
2021/12/27 07:11:55;;;;;;;49.33;31.15;;;-3.90;1.00;;;;;;5142797;27;20349;-79
2021/12/27 07:14:22;;;;;;;44.28;29.85;;;-3.90;1.00;;;;;;5144358;27;20225;-79
2021/12/27 07:16:50;;;;;;;41.30;29.23;;;-3.90;1.00;;;;;;5146728;27;20219;-78
2021/12/27 07:19:17;;;;;;;47.47;30.27;;;-3.80;1.00;;;;;;5149486;27;20254;-78
2021/12/27 07:21:44;;;;;;;45.13;29.83;;;-3.80;1.00;;;;;;5154418;27;20202;-77
2021/12/27 07:24:13;;;;;;;48.95;29.90;;;-3.80;1.00;;;;;;5143545;27;21126;-77
2021/12/27 07:26:40;;;;;;;46.42;30.95;;;-3.80;1.00;;;;;;5146619;27;21037;-78
2021/12/27 07:29:07;;;;;;;43.65;29.73;;;-3.90;1.00;;;;;;5139276;27;20237;-78
2021/12/27 07:31:34;;;;;;;45.95;30.92;;;-3.80;1.00;;;;;;5140205;27;20713;-78
2021/12/27 07:34:04;;;;;;;47.88;28.58;;;-3.90;1.00;;;;;;5141552;27;20229;-77
2021/12/27 07:36:32;;;;;;;45.95;29.00;;;-3.90;1.00;;;;;;5142217;27;20210;-78
2021/12/27 07:39:03;;;;;;;49.95;31.77;;;-3.90;1.00;;;;;;5145303;27;20253;-78
2021/12/27 07:41:31;;;;;;;48.00;29.10;;;-3.80;1.00;;;;;;5138565;27;20226;-79
2021/12/27 07:43:58;;;;;;;51.42;30.83;;;-3.70;1.00;;;;;;5144839;27;20278;-80
2021/12/27 07:46:26;;;;;;;48.42;30.40;;;-3.70;1.00;;;;;;5144924;27;20218;-77
2021/12/27 07:48:53;;;;;;;45.38;31.95;;;-3.70;1.00;;;;;;5145289;27;24981;-78
2021/12/27 07:51:20;;;;;;;45.80;29.85;;;-3.60;1.00;;;;;;5154369;27;20222;-77
2021/12/27 07:53:47;;;;;;;43.83;30.00;;;-3.70;1.00;;;;;;5169159;27;20210;-75
2021/12/27 07:56:14;;;;;;;47.40;31.58;;;-3.60;1.00;;;;;;5152206;27;20225;-78
2021/12/27 07:58:42;;;;;;;43.95;29.23;;;-3.60;1.00;;;;;;5143629;27;20237;-80
2021/12/27 08:01:09;;;;;;;44.63;29.25;;;-3.60;1.00;;;;;;5141184;27;20250;-81
2021/12/27 08:03:36;;;;;;;45.10;29.95;;;-3.70;1.00;;;;;;5147481;27;21406;-77
2021/12/27 08:06:03;;;;;;;45.40;31.83;;;-3.60;1.00;;;;;;5139810;27;20228;-78
2021/12/27 08:08:33;;;;;;;44.75;30.38;;;-3.60;1.00;;;;;;5153357;27;20273;-76
2021/12/27 08:11:00;;;;;;;46.35;30.23;;;-3.60;1.00;;;;;;5141583;27;20264;-77
2021/12/27 08:13:27;;;;;;;49.47;31.45;;;-3.60;1.00;;;;;;5154528;27;20234;-76
2021/12/27 08:15:55;;;;;;;55.80;34.35;;;-3.50;1.00;;;;;;5141313;27;20297;-77
2021/12/27 08:18:22;;;;;;;46.85;30.85;;;-3.40;1.00;;;;;;5140130;27;20275;-76
2021/12/27 08:20:49;;;;;;;46.80;31.23;;;-3.40;1.00;;;;;;5142069;27;21410;-76
2021/12/27 08:23:16;;;;;;;50.33;30.65;;;-3.40;1.00;;;;;;5141467;27;21021;-77
2021/12/27 08:25:43;;;;;;;45.75;32.30;;;-3.40;1.00;;;;;;5141236;27;21531;-77
2021/12/27 08:28:10;;;;;;;47.60;30.15;;;-3.40;1.00;;;;;;5137753;27;20226;-75
2021/12/27 08:30:36;;;;;;;46.70;27.35;;;-3.40;1.00;;;;;;5144171;27;20254;-76
2021/12/27 08:33:05;;;;;;;50.00;30.02;;;-3.30;1.00;;;;;;5139096;27;20276;-77
2021/12/27 08:35:32;;;;;;;52.33;33.40;;;-3.30;1.00;;;;;;5142936;27;20290;-75
2021/12/27 08:37:59;;;;;;;54.50;32.70;;;-3.20;1.00;;;;;;5144091;27;20271;-76
2021/12/27 08:40:26;;;;;;;50.70;31.88;;;-3.10;1.00;;;;;;5147295;27;20323;-75
2021/12/27 08:42:54;;;;;;;43.67;30.17;;;-3.10;1.00;;;;;;5158848;27;20729;-76
2021/12/27 08:45:21;;;;;;;45.83;30.58;;;-3.00;1.00;;;;;;5144962;27;20215;-79
2021/12/27 08:47:48;;;;;;;39.50;28.15;;;-3.00;1.00;;;;;;5145463;27;20267;-76
2021/12/27 08:50:17;;;;;;;40.08;29.00;;;-3.00;1.00;;;;;;5146133;27;20641;-77
2021/12/27 08:52:45;;;;;;;47.08;30.05;;;-3.00;1.00;;;;;;5143273;27;20235;-76
2021/12/27 08:55:12;;;;;;;40.22;27.58;;;-3.00;1.00;;;;;;5149155;27;20293;-76
2021/12/27 08:57:40;;;;;;;46.13;30.98;;;-2.90;1.00;;;;;;5142866;27;20230;-76
2021/12/27 09:00:11;;;;;;;43.88;29.33;;;-2.90;1.00;;;;;;5146288;27;22022;-76
2021/12/27 09:02:38;;;;;;;40.63;28.85;;;-2.70;1.00;;;;;;5144973;27;20218;-77
2021/12/27 09:05:06;;;;;;;43.03;29.38;;;-2.70;1.00;;;;;;5145037;27;20726;-76
2021/12/27 09:07:38;;;;;;;43.25;27.27;;;-2.60;1.00;;;;;;5142269;27;20233;-76
2021/12/27 09:10:07;;;;;;;49.28;28.30;;;-2.50;1.00;;;;;;5144471;27;20327;-76
2021/12/27 09:12:34;;;;;;;48.33;29.38;;;-2.40;1.00;;;;;;5143838;27;20210;-76
2021/12/27 09:15:02;;;;;;;40.42;29.15;;;-2.30;1.00;;;;;;5161793;27;20222;-76
2021/12/27 09:17:29;;;;;;;45.38;28.67;;;-2.20;1.00;;;;;;5142459;27;21378;-75
2021/12/27 09:19:56;;;;;;;43.13;27.95;;;-2.20;1.00;;;;;;5147900;27;20274;-75
2021/12/27 09:22:24;;;;;;;45.33;29.58;;;-2.20;1.00;;;;;;5140658;27;20809;-76
2021/12/27 09:24:52;;;;;;;47.80;30.73;;;-2.20;1.00;;;;;;5144158;27;20244;-75
2021/12/27 09:27:20;;;;;;;40.13;28.73;;;-2.20;1.00;;;;;;5151444;27;20210;-77
2021/12/27 09:29:47;;;;;;;43.25;29.20;;;-2.10;1.00;;;;;;5156292;27;20212;-77
2021/12/27 09:32:14;;;;;;;40.75;27.42;;;-2.10;1.00;;;;;;5166572;27;20221;-75
2021/12/27 09:34:42;;;;;;;43.38;28.20;;;-2.00;1.00;;;;;;5160282;27;20265;-77
2021/12/27 09:37:12;;;;;;;38.75;27.17;;;-2.00;1.00;;;;;;5153201;27;20282;-77
2021/12/27 09:39:39;;;;;;;47.17;29.20;;;-2.00;1.00;;;;;;5157143;27;21008;-77
2021/12/27 09:42:12;;;;;;;45.83;28.58;;;-2.10;1.00;;;;;;5144087;27;20237;-75
2021/12/27 09:44:39;;;;;;;51.53;30.48;;;-2.10;1.00;;;;;;5150055;27;20726;-76
2021/12/27 09:47:06;;;;;;;45.42;28.92;;;-2.10;1.00;;;;;;5152791;27;20332;-77
2021/12/27 09:49:34;;;;;;;44.95;28.77;;;-2.10;1.00;;;;;;5155363;27;20231;-77
2021/12/27 09:52:01;;;;;;;73.90;53.25;;;-2.20;1.00;;;;;;5151047;27;20222;-79
2021/12/27 09:54:29;;;;;;;42.92;30.42;;;-2.10;1.00;;;;;;5153505;27;20241;-78
2021/12/27 09:56:59;;;;;;;46.75;29.30;;;-2.10;1.00;;;;;;5154266;27;20560;-77
2021/12/27 09:59:27;;;;;;;42.75;28.63;;;-2.10;1.00;;;;;;5174361;27;20762;-79
2021/12/27 10:01:57;;;;;;;39.97;27.88;;;-2.10;1.00;;;;;;5165385;27;20233;-77
2021/12/27 10:04:32;;;;;;;50.30;29.65;;;-2.10;1.00;;;;;;5169393;27;20222;-79
2021/12/27 10:07:02;;;;;;;42.80;27.75;;;-2.00;1.00;;;;;;5171369;27;20301;-77
2021/12/27 10:09:29;;;;;;;41.08;27.63;;;-1.80;1.00;;;;;;5167856;27;20205;-77
2021/12/27 10:11:56;;;;;;;46.42;29.38;;;-1.70;1.00;;;;;;5173963;27;20225;-77
2021/12/27 10:14:24;;;;;;;45.92;29.27;;;-1.60;1.00;;;;;;5169388;27;20275;-77
2021/12/27 10:16:54;;;;;;;43.05;29.60;;;-1.50;1.00;;;;;;5165083;27;20244;-77
2021/12/27 10:19:24;;;;;;;44.75;28.58;;;-1.50;1.00;;;;;;5154431;27;20241;-77
2021/12/27 10:21:53;;;;;;;45.70;29.08;;;-1.60;1.00;;;;;;5165693;27;20238;-76
2021/12/27 10:24:21;;;;;;;48.47;28.45;;;-1.50;1.00;;;;;;5150792;27;20381;-79
2021/12/27 10:26:50;;;;;;;42.88;28.90;;;-1.50;1.00;;;;;;5148335;27;20328;-77
2021/12/27 10:29:19;;;;;;;43.30;28.70;;;-1.40;1.00;;;;;;5144454;27;20226;-77
2021/12/27 10:31:59;;;;;;;39.13;28.25;;;-1.30;1.00;;;;;;5145978;27;20305;-78
2021/12/27 10:34:29;;;;;;;41.92;28.65;;;-1.20;1.00;;;;;;5147224;27;20382;-77
2021/12/27 10:37:19;;;;;;;36.70;26.73;;;-1.10;1.00;;;;;;5146725;27;20210;-76
2021/12/27 10:40:05;;;;;;;43.83;28.27;;;-0.90;1.00;;;;;;5146893;27;20438;-79
2021/12/27 10:42:35;;;;;;;42.08;26.55;;;-0.70;1.00;;;;;;5152508;27;20217;-80
2021/12/27 10:45:05;;;;;;;42.72;28.73;;;-0.40;1.00;;;;;;5150983;27;20228;-80
2021/12/27 10:47:36;;;;;;;41.05;26.88;;;0.60;1.00;;;;;;5169702;27;21114;-78
2021/12/27 10:50:11;;;;;;;40.33;27.15;;;1.40;1.00;;;;;;5144408;27;20808;-78
2021/12/27 10:52:44;;;;;;;37.53;27.05;;;1.70;1.00;;;;;;5154291;27;20231;-78
2021/12/27 10:55:11;;;;;;;41.08;27.05;;;1.60;1.00;;;;;;5163551;27;20294;-80
2021/12/27 10:57:38;;;;;;;40.13;28.10;;;1.30;1.00;;;;;;5149835;27;20270;-79
2021/12/27 11:00:20;;;;;;;37.08;26.77;;;0.90;1.00;;;;;;5146678;27;20322;-79
2021/12/27 11:02:48;;;;;;;40.70;27.60;;;0.30;1.00;;;;;;5147942;27;20263;-80
2021/12/27 11:05:17;;;;;;;39.85;26.70;;;-0.10;1.00;;;;;;5153287;27;20226;-77
2021/12/27 11:07:45;;;;;;;38.90;28.40;;;-0.20;1.00;;;;;;5151344;27;20218;-80
2021/12/27 11:10:12;;;;;;;42.15;28.23;;;-0.20;1.00;;;;;;5151457;27;20396;-78
2021/12/27 11:12:39;;;;;;;37.65;26.88;;;-0.20;1.00;;;;;;5155657;27;20215;-80
2021/12/27 11:15:09;;;;;;;43.85;29.63;;;-0.20;1.00;;;;;;5153978;27;20294;-79
2021/12/27 11:17:38;;;;;;;37.90;27.27;;;-0.30;1.00;;;;;;5164549;27;20224;-79
2021/12/27 11:20:08;;;;;;;41.33;26.58;;;-0.20;1.00;;;;;;5154064;27;20234;-79
2021/12/27 11:22:38;;;;;;;39.53;26.20;;;-0.20;1.00;;;;;;5150996;27;20226;-79
2021/12/27 11:25:07;;;;;;;41.03;27.25;;;-0.20;1.00;;;;;;5162855;27;20220;-78
2021/12/27 11:27:36;;;;;;;36.55;27.38;;;-0.20;1.00;;;;;;5159361;27;20237;-78
2021/12/27 11:30:11;;;;;;;39.45;25.60;;;-0.10;1.00;;;;;;5158114;27;20255;-79
2021/12/27 11:32:38;;;;;;;40.45;26.15;;;0.10;1.00;;;;;;5156250;27;20282;-81
2021/12/27 11:35:09;;;;;;;37.88;27.35;;;0.30;1.00;;;;;;5160091;27;20700;-78
2021/12/27 11:37:38;;;;;;;42.30;28.55;;;0.20;1.00;;;;;;5160693;27;20362;-78
2021/12/27 11:40:07;;;;;;;43.03;28.20;;;0.20;1.00;;;;;;5159747;27;20238;-78
2021/12/27 11:42:55;;;;;;;35.88;26.20;;;0.30;1.00;;;;;;5158731;27;20356;-79
2021/12/27 11:45:41;;;;;;;38.58;27.05;;;0.40;1.00;;;;;;5149881;27;20313;-80
2021/12/27 11:48:10;;;;;;;41.78;27.02;;;0.50;1.00;;;;;;5155756;27;20242;-80
2021/12/27 11:51:06;;;;;;;39.08;26.92;;;0.60;1.00;;;;;;5152970;27;20214;-79
2021/12/27 11:53:37;;;;;;;39.22;27.13;;;0.50;1.00;;;;;;5151129;27;20325;-79
2021/12/27 11:56:09;;;;;;;43.88;28.58;;;0.50;1.00;;;;;;5151335;27;20214;-78
2021/12/27 11:58:38;;;;;;;40.55;27.48;;;0.60;1.00;;;;;;5153813;27;20220;-78
2021/12/27 12:01:29;;;;;;;37.70;25.80;;;0.50;1.00;;;;;;5163964;27;20256;-79
2021/12/27 12:04:00;;;;;;;38.90;26.33;;;0.50;1.00;;;;;;5151101;27;20222;-80
2021/12/27 12:06:41;;;;;;;38.47;26.30;;;0.50;1.00;;;;;;5149873;27;20310;-80
2021/12/27 12:09:14;;;;;;;36.08;25.65;;;0.40;1.00;;;;;;5150859;27;20220;-80
2021/12/27 12:11:42;;;;;;;36.22;27.35;;;0.50;1.00;;;;;;5152366;27;20268;-81
2021/12/27 12:14:31;;;;;;;36.88;25.75;;;0.50;1.00;;;;;;5159838;27;20221;-82
2021/12/27 12:16:59;;;;;;;38.75;26.45;;;0.40;1.00;;;;;;5164513;27;20232;-77
2021/12/27 12:19:40;;;;;;;39.53;27.30;;;0.40;1.00;;;;;;5174514;27;20345;-80
2021/12/27 12:22:33;;;;;;;36.13;25.08;;;0.40;1.00;;;;;;5171760;27;20230;-79
2021/12/27 12:25:22;;;;;;;39.25;24.52;;;0.40;1.00;;;;;;5169416;27;20226;-80
2021/12/27 12:27:54;;;;;;;34.42;24.85;;;0.30;1.00;;;;;;5169167;27;20294;-79
2021/12/27 12:30:22;;;;;;;39.95;26.35;;;0.40;1.00;;;;;;5171751;27;20232;-77
2021/12/27 12:33:01;;;;;;;39.85;26.30;;;0.30;1.00;;;;;;5173980;27;20232;-77
2021/12/27 12:35:42;;;;;;;36.22;27.25;;;0.10;1.00;;;;;;5168201;27;20291;-80
2021/12/27 12:38:16;;;;;;;45.15;25.98;;;0.20;1.00;;;;;;5156608;27;20402;-81
2021/12/27 12:40:45;;;;;;;39.78;26.67;;;0.40;1.00;;;;;;5156128;27;20227;-79
2021/12/27 12:43:13;;;;;;;39.08;26.58;;;0.40;1.00;;;;;;5164155;27;20371;-79
2021/12/27 12:45:40;;;;;;;42.08;26.75;;;0.50;1.00;;;;;;5165743;27;20362;-82
2021/12/27 12:48:07;;;;;;;39.67;27.80;;;0.50;1.00;;;;;;5164520;27;20221;-79